sensor_id;sensor_type;location;lat;lon;timestamp;P1;durP1;ratioP1;P2;durP2;ratioP2
25868;SDS011;13688;53.154;18.136;2023-12-20T00:00:42;3.83;;;3.00;;
25868;SDS011;13688;53.154;18.136;2023-12-20T00:06:06;4.20;;;2.90;;
25868;SDS011;13688;53.154;18.136;2023-12-20T00:11:29;4.30;;;3.10;;
25868;SDS011;13688;53.154;18.136;2023-12-20T00:16:51;3.80;;;3.25;;
25868;SDS011;13688;53.154;18.136;2023-12-20T00:22:14;3.37;;;2.67;;
25868;SDS011;13688;53.154;18.136;2023-12-20T00:27:36;3.40;;;3.00;;
25868;SDS011;13688;53.154;18.136;2023-12-20T00:32:58;3.58;;;2.70;;
25868;SDS011;13688;53.154;18.136;2023-12-20T00:38:21;3.22;;;2.83;;
25868;SDS011;13688;53.154;18.136;2023-12-20T00:43:43;3.27;;;2.87;;
25868;SDS011;13688;53.154;18.136;2023-12-20T00:49:06;3.42;;;2.75;;
25868;SDS011;13688;53.154;18.136;2023-12-20T00:54:29;3.07;;;2.40;;
25868;SDS011;13688;53.154;18.136;2023-12-20T00:59:51;4.58;;;2.83;;
25868;SDS011;13688;53.154;18.136;2023-12-20T01:05:14;3.70;;;3.02;;
25868;SDS011;13688;53.154;18.136;2023-12-20T01:10:37;3.58;;;2.75;;
25868;SDS011;13688;53.154;18.136;2023-12-20T01:15:59;3.50;;;2.83;;
25868;SDS011;13688;53.154;18.136;2023-12-20T01:21:22;3.50;;;2.63;;
25868;SDS011;13688;53.154;18.136;2023-12-20T01:26:44;3.65;;;3.20;;
25868;SDS011;13688;53.154;18.136;2023-12-20T01:32:07;3.37;;;3.08;;
25868;SDS011;13688;53.154;18.136;2023-12-20T01:37:29;3.65;;;3.35;;
25868;SDS011;13688;53.154;18.136;2023-12-20T01:43:02;3.65;;;3.08;;
25868;SDS011;13688;53.154;18.136;2023-12-20T01:48:26;5.63;;;3.17;;
25868;SDS011;13688;53.154;18.136;2023-12-20T01:53:50;3.60;;;2.98;;
25868;SDS011;13688;53.154;18.136;2023-12-20T01:59:14;3.83;;;3.42;;
25868;SDS011;13688;53.154;18.136;2023-12-20T02:04:36;4.37;;;2.98;;
25868;SDS011;13688;53.154;18.136;2023-12-20T02:10:00;3.77;;;2.90;;
25868;SDS011;13688;53.154;18.136;2023-12-20T02:15:24;4.85;;;3.20;;
25868;SDS011;13688;53.154;18.136;2023-12-20T02:20:47;3.58;;;3.22;;
25868;SDS011;13688;53.154;18.136;2023-12-20T02:26:10;4.17;;;2.90;;
25868;SDS011;13688;53.154;18.136;2023-12-20T02:31:32;3.70;;;3.20;;
25868;SDS011;13688;53.154;18.136;2023-12-20T02:36:55;4.53;;;3.67;;
25868;SDS011;13688;53.154;18.136;2023-12-20T02:42:17;3.42;;;3.10;;
25868;SDS011;13688;53.154;18.136;2023-12-20T02:47:40;3.45;;;3.10;;
25868;SDS011;13688;53.154;18.136;2023-12-20T02:53:02;3.87;;;3.08;;
25868;SDS011;13688;53.154;18.136;2023-12-20T02:58:25;3.90;;;3.00;;
25868;SDS011;13688;53.154;18.136;2023-12-20T03:03:47;3.60;;;2.98;;
25868;SDS011;13688;53.154;18.136;2023-12-20T03:09:10;3.20;;;2.77;;
25868;SDS011;13688;53.154;18.136;2023-12-20T03:14:34;3.87;;;2.80;;
25868;SDS011;13688;53.154;18.136;2023-12-20T03:19:57;3.30;;;2.72;;
25868;SDS011;13688;53.154;18.136;2023-12-20T03:25:20;5.03;;;2.62;;
25868;SDS011;13688;53.154;18.136;2023-12-20T03:30:43;2.40;;;2.20;;
25868;SDS011;13688;53.154;18.136;2023-12-20T03:36:06;3.27;;;2.67;;
25868;SDS011;13688;53.154;18.136;2023-12-20T03:41:28;4.60;;;3.30;;
25868;SDS011;13688;53.154;18.136;2023-12-20T03:46:51;4.70;;;4.03;;
25868;SDS011;13688;53.154;18.136;2023-12-20T03:52:13;4.50;;;3.17;;
25868;SDS011;13688;53.154;18.136;2023-12-20T03:57:36;3.45;;;2.33;;
25868;SDS011;13688;53.154;18.136;2023-12-20T04:02:58;2.52;;;2.22;;
25868;SDS011;13688;53.154;18.136;2023-12-20T04:08:21;2.22;;;1.52;;
25868;SDS011;13688;53.154;18.136;2023-12-20T04:13:43;1.62;;;1.40;;
25868;SDS011;13688;53.154;18.136;2023-12-20T04:19:06;1.65;;;1.52;;
25868;SDS011;13688;53.154;18.136;2023-12-20T04:24:29;2.05;;;1.80;;
25868;SDS011;13688;53.154;18.136;2023-12-20T04:29:51;2.37;;;1.90;;
25868;SDS011;13688;53.154;18.136;2023-12-20T04:35:14;2.00;;;1.70;;
25868;SDS011;13688;53.154;18.136;2023-12-20T04:40:37;2.45;;;2.20;;
25868;SDS011;13688;53.154;18.136;2023-12-20T04:45:59;3.35;;;2.42;;
25868;SDS011;13688;53.154;18.136;2023-12-20T04:51:22;5.35;;;2.58;;
25868;SDS011;13688;53.154;18.136;2023-12-20T04:56:44;3.60;;;2.87;;
25868;SDS011;13688;53.154;18.136;2023-12-20T05:02:07;4.87;;;3.12;;
25868;SDS011;13688;53.154;18.136;2023-12-20T05:07:29;3.67;;;2.80;;
25868;SDS011;13688;53.154;18.136;2023-12-20T05:12:52;4.67;;;3.25;;
25868;SDS011;13688;53.154;18.136;2023-12-20T05:18:15;3.72;;;2.87;;
25868;SDS011;13688;53.154;18.136;2023-12-20T05:23:38;7.05;;;3.52;;
25868;SDS011;13688;53.154;18.136;2023-12-20T05:29:01;3.98;;;3.33;;
25868;SDS011;13688;53.154;18.136;2023-12-20T05:34:23;3.80;;;3.00;;
25868;SDS011;13688;53.154;18.136;2023-12-20T05:39:46;10.50;;;3.62;;
25868;SDS011;13688;53.154;18.136;2023-12-20T05:45:08;5.67;;;3.50;;
25868;SDS011;13688;53.154;18.136;2023-12-20T05:50:31;3.22;;;2.72;;
25868;SDS011;13688;53.154;18.136;2023-12-20T05:55:53;4.53;;;3.30;;
25868;SDS011;13688;53.154;18.136;2023-12-20T06:01:16;5.45;;;2.83;;
25868;SDS011;13688;53.154;18.136;2023-12-20T06:06:42;4.67;;;2.80;;
25868;SDS011;13688;53.154;18.136;2023-12-20T06:12:04;5.80;;;2.40;;
25868;SDS011;13688;53.154;18.136;2023-12-20T06:17:27;2.70;;;1.82;;
25868;SDS011;13688;53.154;18.136;2023-12-20T06:22:51;2.62;;;1.75;;
25868;SDS011;13688;53.154;18.136;2023-12-20T06:28:14;3.12;;;1.62;;
25868;SDS011;13688;53.154;18.136;2023-12-20T06:33:38;5.42;;;2.95;;
25868;SDS011;13688;53.154;18.136;2023-12-20T06:39:02;4.72;;;3.25;;
25868;SDS011;13688;53.154;18.136;2023-12-20T06:44:25;7.28;;;4.45;;
25868;SDS011;13688;53.154;18.136;2023-12-20T06:49:47;6.40;;;3.98;;
25868;SDS011;13688;53.154;18.136;2023-12-20T06:55:12;8.35;;;5.22;;
25868;SDS011;13688;53.154;18.136;2023-12-20T07:00:34;8.85;;;5.12;;
25868;SDS011;13688;53.154;18.136;2023-12-20T07:05:57;6.30;;;4.37;;
25868;SDS011;13688;53.154;18.136;2023-12-20T07:11:21;8.88;;;4.40;;
25868;SDS011;13688;53.154;18.136;2023-12-20T07:16:43;8.20;;;4.58;;
25868;SDS011;13688;53.154;18.136;2023-12-20T07:22:06;8.28;;;4.47;;
25868;SDS011;13688;53.154;18.136;2023-12-20T07:27:29;8.53;;;4.50;;
25868;SDS011;13688;53.154;18.136;2023-12-20T07:32:52;9.83;;;5.25;;
25868;SDS011;13688;53.154;18.136;2023-12-20T07:38:16;14.28;;;5.50;;
25868;SDS011;13688;53.154;18.136;2023-12-20T07:43:40;11.25;;;5.20;;
25868;SDS011;13688;53.154;18.136;2023-12-20T07:49:03;13.68;;;6.70;;
25868;SDS011;13688;53.154;18.136;2023-12-20T07:54:26;17.30;;;9.60;;
25868;SDS011;13688;53.154;18.136;2023-12-20T07:59:49;19.87;;;10.10;;
25868;SDS011;13688;53.154;18.136;2023-12-20T08:05:11;15.30;;;7.75;;
25868;SDS011;13688;53.154;18.136;2023-12-20T08:10:33;11.83;;;7.00;;
25868;SDS011;13688;53.154;18.136;2023-12-20T08:15:56;11.85;;;6.35;;
25868;SDS011;13688;53.154;18.136;2023-12-20T08:21:21;8.93;;;4.75;;
25868;SDS011;13688;53.154;18.136;2023-12-20T08:26:44;9.83;;;4.65;;
25868;SDS011;13688;53.154;18.136;2023-12-20T08:32:06;11.33;;;4.87;;
25868;SDS011;13688;53.154;18.136;2023-12-20T08:37:31;15.78;;;5.47;;
25868;SDS011;13688;53.154;18.136;2023-12-20T08:42:53;9.45;;;4.60;;
25868;SDS011;13688;53.154;18.136;2023-12-20T08:48:16;9.63;;;4.55;;
25868;SDS011;13688;53.154;18.136;2023-12-20T08:53:39;10.20;;;4.40;;
25868;SDS011;13688;53.154;18.136;2023-12-20T08:59:02;13.93;;;4.55;;
25868;SDS011;13688;53.154;18.136;2023-12-20T09:04:24;8.35;;;4.15;;
25868;SDS011;13688;53.154;18.136;2023-12-20T09:09:47;7.92;;;3.62;;
25868;SDS011;13688;53.154;18.136;2023-12-20T09:15:10;8.30;;;3.87;;
25868;SDS011;13688;53.154;18.136;2023-12-20T09:20:39;10.48;;;4.83;;
25868;SDS011;13688;53.154;18.136;2023-12-20T09:26:01;12.75;;;4.75;;
25868;SDS011;13688;53.154;18.136;2023-12-20T09:31:24;10.60;;;4.78;;
25868;SDS011;13688;53.154;18.136;2023-12-20T09:36:48;10.55;;;4.25;;
25868;SDS011;13688;53.154;18.136;2023-12-20T09:42:11;8.25;;;3.20;;
25868;SDS011;13688;53.154;18.136;2023-12-20T09:47:40;9.10;;;3.30;;
25868;SDS011;13688;53.154;18.136;2023-12-20T09:53:08;8.00;;;3.27;;
25868;SDS011;13688;53.154;18.136;2023-12-20T09:58:52;7.47;;;2.30;;
25868;SDS011;13688;53.154;18.136;2023-12-20T10:04:10;4.62;;;2.67;;
25868;SDS011;13688;53.154;18.136;2023-12-20T10:09:34;7.57;;;2.73;;
25868;SDS011;13688;53.154;18.136;2023-12-20T10:14:57;5.78;;;2.33;;
25868;SDS011;13688;53.154;18.136;2023-12-20T10:20:20;4.97;;;1.83;;
25868;SDS011;13688;53.154;18.136;2023-12-20T10:25:49;10.60;;;2.98;;
25868;SDS011;13688;53.154;18.136;2023-12-20T10:31:26;5.65;;;2.37;;
25868;SDS011;13688;53.154;18.136;2023-12-20T10:36:49;5.97;;;2.43;;
25868;SDS011;13688;53.154;18.136;2023-12-20T10:42:12;6.40;;;2.53;;
25868;SDS011;13688;53.154;18.136;2023-12-20T10:47:37;9.00;;;2.37;;
25868;SDS011;13688;53.154;18.136;2023-12-20T10:53:06;7.37;;;2.87;;
25868;SDS011;13688;53.154;18.136;2023-12-20T10:58:29;7.80;;;2.80;;
25868;SDS011;13688;53.154;18.136;2023-12-20T11:03:55;11.57;;;2.60;;
25868;SDS011;13688;53.154;18.136;2023-12-20T11:09:22;8.35;;;2.62;;
25868;SDS011;13688;53.154;18.136;2023-12-20T11:14:52;5.87;;;2.30;;
25868;SDS011;13688;53.154;18.136;2023-12-20T11:20:16;7.92;;;2.37;;
25868;SDS011;13688;53.154;18.136;2023-12-20T11:25:48;11.20;;;2.25;;
25868;SDS011;13688;53.154;18.136;2023-12-20T11:31:12;8.10;;;2.17;;
25868;SDS011;13688;53.154;18.136;2023-12-20T11:36:36;9.85;;;2.20;;
25868;SDS011;13688;53.154;18.136;2023-12-20T11:42:04;11.73;;;2.60;;
25868;SDS011;13688;53.154;18.136;2023-12-20T11:47:27;10.20;;;2.42;;
25868;SDS011;13688;53.154;18.136;2023-12-20T11:52:52;8.75;;;2.37;;
25868;SDS011;13688;53.154;18.136;2023-12-20T11:58:15;9.60;;;2.30;;
25868;SDS011;13688;53.154;18.136;2023-12-20T12:03:38;9.43;;;2.22;;
25868;SDS011;13688;53.154;18.136;2023-12-20T12:09:03;10.30;;;2.37;;
25868;SDS011;13688;53.154;18.136;2023-12-20T12:14:26;6.30;;;2.20;;
25868;SDS011;13688;53.154;18.136;2023-12-20T12:19:49;7.17;;;2.87;;
25868;SDS011;13688;53.154;18.136;2023-12-20T12:25:22;5.58;;;1.95;;
25868;SDS011;13688;53.154;18.136;2023-12-20T12:31:01;4.93;;;1.67;;
25868;SDS011;13688;53.154;18.136;2023-12-20T12:36:25;5.20;;;2.03;;
25868;SDS011;13688;53.154;18.136;2023-12-20T12:41:52;5.77;;;1.70;;
25868;SDS011;13688;53.154;18.136;2023-12-20T12:47:15;4.92;;;1.90;;
25868;SDS011;13688;53.154;18.136;2023-12-20T12:52:38;3.77;;;1.80;;
25868;SDS011;13688;53.154;18.136;2023-12-20T12:58:06;3.30;;;1.57;;
25868;SDS011;13688;53.154;18.136;2023-12-20T13:03:41;8.27;;;2.00;;
25868;SDS011;13688;53.154;18.136;2023-12-20T13:09:05;5.10;;;1.80;;
25868;SDS011;13688;53.154;18.136;2023-12-20T13:14:28;4.67;;;2.05;;
25868;SDS011;13688;53.154;18.136;2023-12-20T13:19:51;6.87;;;2.27;;
25868;SDS011;13688;53.154;18.136;2023-12-20T13:25:17;6.70;;;2.30;;
25868;SDS011;13688;53.154;18.136;2023-12-20T13:30:40;5.67;;;2.20;;
25868;SDS011;13688;53.154;18.136;2023-12-20T13:36:03;7.87;;;2.30;;
25868;SDS011;13688;53.154;18.136;2023-12-20T13:41:26;6.83;;;2.23;;
25868;SDS011;13688;53.154;18.136;2023-12-20T13:46:48;8.27;;;2.37;;
25868;SDS011;13688;53.154;18.136;2023-12-20T13:52:12;7.65;;;2.60;;
25868;SDS011;13688;53.154;18.136;2023-12-20T13:57:35;5.15;;;2.40;;
25868;SDS011;13688;53.154;18.136;2023-12-20T14:02:58;9.33;;;2.95;;
25868;SDS011;13688;53.154;18.136;2023-12-20T14:08:23;9.18;;;2.98;;
25868;SDS011;13688;53.154;18.136;2023-12-20T14:13:46;5.28;;;1.98;;
25868;SDS011;13688;53.154;18.136;2023-12-20T14:19:08;10.82;;;2.60;;
25868;SDS011;13688;53.154;18.136;2023-12-20T14:24:32;10.63;;;3.25;;
25868;SDS011;13688;53.154;18.136;2023-12-20T14:29:55;8.20;;;2.80;;
25868;SDS011;13688;53.154;18.136;2023-12-20T14:35:20;15.05;;;3.40;;
25868;SDS011;13688;53.154;18.136;2023-12-20T14:40:45;8.00;;;2.35;;
25868;SDS011;13688;53.154;18.136;2023-12-20T14:46:10;7.75;;;2.65;;
25868;SDS011;13688;53.154;18.136;2023-12-20T14:51:33;8.95;;;2.92;;
25868;SDS011;13688;53.154;18.136;2023-12-20T14:56:57;11.73;;;3.62;;
25868;SDS011;13688;53.154;18.136;2023-12-20T15:02:21;12.82;;;2.70;;
25868;SDS011;13688;53.154;18.136;2023-12-20T15:07:45;13.08;;;2.83;;
25868;SDS011;13688;53.154;18.136;2023-12-20T15:13:07;15.70;;;3.83;;
25868;SDS011;13688;53.154;18.136;2023-12-20T15:18:30;12.18;;;3.12;;
25868;SDS011;13688;53.154;18.136;2023-12-20T15:23:53;12.55;;;2.87;;
25868;SDS011;13688;53.154;18.136;2023-12-20T15:29:34;11.47;;;2.07;;
25868;SDS011;13688;53.154;18.136;2023-12-20T15:34:58;17.55;;;3.92;;
25868;SDS011;13688;53.154;18.136;2023-12-20T15:40:21;9.38;;;2.90;;
25868;SDS011;13688;53.154;18.136;2023-12-20T15:45:44;9.30;;;3.10;;
25868;SDS011;13688;53.154;18.136;2023-12-20T15:51:09;9.40;;;2.27;;
25868;SDS011;13688;53.154;18.136;2023-12-20T15:56:32;10.70;;;2.92;;
25868;SDS011;13688;53.154;18.136;2023-12-20T16:01:55;11.12;;;2.85;;
25868;SDS011;13688;53.154;18.136;2023-12-20T16:07:19;9.80;;;2.23;;
25868;SDS011;13688;53.154;18.136;2023-12-20T16:12:41;8.30;;;2.57;;
25868;SDS011;13688;53.154;18.136;2023-12-20T16:18:04;9.53;;;2.77;;
25868;SDS011;13688;53.154;18.136;2023-12-20T16:23:27;8.38;;;2.50;;
25868;SDS011;13688;53.154;18.136;2023-12-20T16:28:49;8.18;;;2.40;;
25868;SDS011;13688;53.154;18.136;2023-12-20T16:34:12;11.18;;;3.67;;
25868;SDS011;13688;53.154;18.136;2023-12-20T16:39:35;8.18;;;2.52;;
25868;SDS011;13688;53.154;18.136;2023-12-20T16:44:58;10.30;;;3.12;;
25868;SDS011;13688;53.154;18.136;2023-12-20T16:50:23;7.45;;;3.00;;
25868;SDS011;13688;53.154;18.136;2023-12-20T16:55:46;8.70;;;3.67;;
25868;SDS011;13688;53.154;18.136;2023-12-20T17:01:08;11.28;;;2.87;;
25868;SDS011;13688;53.154;18.136;2023-12-20T17:06:33;6.97;;;2.40;;
25868;SDS011;13688;53.154;18.136;2023-12-20T17:11:55;7.50;;;2.52;;
25868;SDS011;13688;53.154;18.136;2023-12-20T17:17:18;7.65;;;2.00;;
25868;SDS011;13688;53.154;18.136;2023-12-20T17:22:41;6.30;;;1.77;;
25868;SDS011;13688;53.154;18.136;2023-12-20T17:28:04;4.25;;;1.60;;
25868;SDS011;13688;53.154;18.136;2023-12-20T17:33:26;3.40;;;1.67;;
25868;SDS011;13688;53.154;18.136;2023-12-20T17:38:49;3.50;;;1.60;;
25868;SDS011;13688;53.154;18.136;2023-12-20T17:44:11;2.83;;;1.42;;
25868;SDS011;13688;53.154;18.136;2023-12-20T17:49:34;4.75;;;1.90;;
25868;SDS011;13688;53.154;18.136;2023-12-20T17:54:57;4.80;;;2.00;;
25868;SDS011;13688;53.154;18.136;2023-12-20T18:00:19;5.75;;;1.67;;
25868;SDS011;13688;53.154;18.136;2023-12-20T18:05:44;4.35;;;1.90;;
25868;SDS011;13688;53.154;18.136;2023-12-20T18:11:07;5.12;;;2.27;;
25868;SDS011;13688;53.154;18.136;2023-12-20T18:16:29;7.50;;;3.10;;
25868;SDS011;13688;53.154;18.136;2023-12-20T18:21:52;10.65;;;3.58;;
25868;SDS011;13688;53.154;18.136;2023-12-20T18:27:15;7.37;;;2.83;;
25868;SDS011;13688;53.154;18.136;2023-12-20T18:32:39;7.67;;;3.02;;
25868;SDS011;13688;53.154;18.136;2023-12-20T18:38:03;9.13;;;3.52;;
25868;SDS011;13688;53.154;18.136;2023-12-20T18:43:27;7.60;;;3.30;;
25868;SDS011;13688;53.154;18.136;2023-12-20T18:48:52;7.97;;;3.25;;
25868;SDS011;13688;53.154;18.136;2023-12-20T18:54:16;7.53;;;3.15;;
25868;SDS011;13688;53.154;18.136;2023-12-20T18:59:40;10.78;;;3.10;;
25868;SDS011;13688;53.154;18.136;2023-12-20T19:05:05;7.97;;;2.33;;
25868;SDS011;13688;53.154;18.136;2023-12-20T19:10:31;9.95;;;2.00;;
25868;SDS011;13688;53.154;18.136;2023-12-20T19:15:57;7.62;;;2.10;;
25868;SDS011;13688;53.154;18.136;2023-12-20T19:21:20;7.78;;;2.62;;
25868;SDS011;13688;53.154;18.136;2023-12-20T19:26:46;8.05;;;2.62;;
25868;SDS011;13688;53.154;18.136;2023-12-20T19:32:10;6.28;;;2.60;;
25868;SDS011;13688;53.154;18.136;2023-12-20T19:37:35;8.53;;;2.60;;
25868;SDS011;13688;53.154;18.136;2023-12-20T19:42:58;8.93;;;2.22;;
25868;SDS011;13688;53.154;18.136;2023-12-20T19:48:22;10.90;;;2.87;;
25868;SDS011;13688;53.154;18.136;2023-12-20T19:53:48;9.43;;;3.08;;
25868;SDS011;13688;53.154;18.136;2023-12-20T19:59:13;8.63;;;2.95;;
25868;SDS011;13688;53.154;18.136;2023-12-20T20:04:37;11.12;;;3.02;;
25868;SDS011;13688;53.154;18.136;2023-12-20T20:10:01;8.75;;;3.08;;
25868;SDS011;13688;53.154;18.136;2023-12-20T20:15:25;5.95;;;2.45;;
25868;SDS011;13688;53.154;18.136;2023-12-20T20:20:50;10.43;;;3.00;;
25868;SDS011;13688;53.154;18.136;2023-12-20T20:26:13;10.30;;;3.12;;
25868;SDS011;13688;53.154;18.136;2023-12-20T20:31:38;10.55;;;3.20;;
25868;SDS011;13688;53.154;18.136;2023-12-20T20:37:00;15.73;;;3.53;;
25868;SDS011;13688;53.154;18.136;2023-12-20T20:42:24;6.50;;;2.37;;
25868;SDS011;13688;53.154;18.136;2023-12-20T20:47:48;9.18;;;3.22;;
25868;SDS011;13688;53.154;18.136;2023-12-20T20:53:12;14.35;;;2.62;;
25868;SDS011;13688;53.154;18.136;2023-12-20T20:58:35;10.08;;;2.98;;
25868;SDS011;13688;53.154;18.136;2023-12-20T21:04:01;10.28;;;2.65;;
25868;SDS011;13688;53.154;18.136;2023-12-20T21:09:21;10.82;;;2.72;;
25868;SDS011;13688;53.154;18.136;2023-12-20T21:14:44;12.63;;;3.22;;
25868;SDS011;13688;53.154;18.136;2023-12-20T21:20:06;8.70;;;2.95;;
25868;SDS011;13688;53.154;18.136;2023-12-20T21:25:29;8.70;;;2.63;;
25868;SDS011;13688;53.154;18.136;2023-12-20T21:30:53;9.28;;;3.08;;
25868;SDS011;13688;53.154;18.136;2023-12-20T21:36:16;13.00;;;3.45;;
25868;SDS011;13688;53.154;18.136;2023-12-20T21:41:39;9.37;;;3.13;;
25868;SDS011;13688;53.154;18.136;2023-12-20T21:47:01;14.23;;;2.77;;
25868;SDS011;13688;53.154;18.136;2023-12-20T21:52:23;9.05;;;2.45;;
25868;SDS011;13688;53.154;18.136;2023-12-20T21:57:46;14.15;;;3.22;;
25868;SDS011;13688;53.154;18.136;2023-12-20T22:03:08;11.05;;;2.67;;
25868;SDS011;13688;53.154;18.136;2023-12-20T22:08:31;11.83;;;3.30;;
25868;SDS011;13688;53.154;18.136;2023-12-20T22:13:53;13.35;;;3.10;;
25868;SDS011;13688;53.154;18.136;2023-12-20T22:19:16;9.60;;;2.70;;
25868;SDS011;13688;53.154;18.136;2023-12-20T22:24:39;14.13;;;3.17;;
25868;SDS011;13688;53.154;18.136;2023-12-20T22:30:02;12.07;;;3.45;;
25868;SDS011;13688;53.154;18.136;2023-12-20T22:35:24;17.30;;;3.37;;
25868;SDS011;13688;53.154;18.136;2023-12-20T22:40:48;14.15;;;3.62;;
25868;SDS011;13688;53.154;18.136;2023-12-20T22:46:14;14.47;;;3.20;;
25868;SDS011;13688;53.154;18.136;2023-12-20T22:51:37;8.93;;;3.27;;
25868;SDS011;13688;53.154;18.136;2023-12-20T22:56:59;13.60;;;4.15;;
25868;SDS011;13688;53.154;18.136;2023-12-20T23:02:22;9.68;;;2.95;;
25868;SDS011;13688;53.154;18.136;2023-12-20T23:07:44;14.80;;;3.60;;
25868;SDS011;13688;53.154;18.136;2023-12-20T23:13:07;15.23;;;4.50;;
25868;SDS011;13688;53.154;18.136;2023-12-20T23:18:30;14.07;;;3.72;;
25868;SDS011;13688;53.154;18.136;2023-12-20T23:23:52;17.65;;;4.78;;
25868;SDS011;13688;53.154;18.136;2023-12-20T23:29:15;8.80;;;3.20;;
25868;SDS011;13688;53.154;18.136;2023-12-20T23:34:37;6.20;;;2.42;;
25868;SDS011;13688;53.154;18.136;2023-12-20T23:40:01;4.12;;;1.75;;
25868;SDS011;13688;53.154;18.136;2023-12-20T23:45:24;7.83;;;2.83;;
25868;SDS011;13688;53.154;18.136;2023-12-20T23:50:47;7.95;;;2.62;;
25868;SDS011;13688;53.154;18.136;2023-12-20T23:56:10;6.70;;;2.27;;
